sensor_id;sensor_type;location;lat;lon;timestamp;temperature;humidity
58849;DHT22;44619;51.022;6.818;2023-03-01T00:00:52;2.30;48.00
58849;DHT22;44619;51.022;6.818;2023-03-01T00:03:20;2.20;48.10
58849;DHT22;44619;51.022;6.818;2023-03-01T00:05:46;2.30;48.20
58849;DHT22;44619;51.022;6.818;2023-03-01T00:08:12;2.30;47.90
58849;DHT22;44619;51.022;6.818;2023-03-01T00:10:38;2.20;48.00
58849;DHT22;44619;51.022;6.818;2023-03-01T00:13:03;2.20;48.00
58849;DHT22;44619;51.022;6.818;2023-03-01T00:15:31;2.10;48.20
58849;DHT22;44619;51.022;6.818;2023-03-01T00:17:56;1.90;48.20
58849;DHT22;44619;51.022;6.818;2023-03-01T00:20:22;2.00;48.50
58849;DHT22;44619;51.022;6.818;2023-03-01T00:22:47;1.90;48.40
58849;DHT22;44619;51.022;6.818;2023-03-01T00:25:13;1.90;48.30
58849;DHT22;44619;51.022;6.818;2023-03-01T00:27:41;1.90;48.40
58849;DHT22;44619;51.022;6.818;2023-03-01T00:30:07;1.90;48.30
58849;DHT22;44619;51.022;6.818;2023-03-01T00:32:33;2.00;48.00
58849;DHT22;44619;51.022;6.818;2023-03-01T00:34:58;1.90;47.90
58849;DHT22;44619;51.022;6.818;2023-03-01T00:37:24;1.80;48.20
58849;DHT22;44619;51.022;6.818;2023-03-01T00:39:50;1.80;48.10
58849;DHT22;44619;51.022;6.818;2023-03-01T00:42:15;1.80;48.20
58849;DHT22;44619;51.022;6.818;2023-03-01T00:44:41;1.80;48.00
58849;DHT22;44619;51.022;6.818;2023-03-01T00:47:07;1.80;48.00
58849;DHT22;44619;51.022;6.818;2023-03-01T00:49:35;1.70;48.00
58849;DHT22;44619;51.022;6.818;2023-03-01T00:52:01;1.60;47.90
58849;DHT22;44619;51.022;6.818;2023-03-01T00:54:26;1.60;48.00
58849;DHT22;44619;51.022;6.818;2023-03-01T00:56:52;1.50;48.00
58849;DHT22;44619;51.022;6.818;2023-03-01T00:59:17;1.50;48.30
58849;DHT22;44619;51.022;6.818;2023-03-01T01:01:43;1.50;48.20
58849;DHT22;44619;51.022;6.818;2023-03-01T01:04:09;1.50;48.10
58849;DHT22;44619;51.022;6.818;2023-03-01T01:06:39;1.30;48.20
58849;DHT22;44619;51.022;6.818;2023-03-01T01:09:08;1.40;48.30
58849;DHT22;44619;51.022;6.818;2023-03-01T01:11:33;1.20;48.50
58849;DHT22;44619;51.022;6.818;2023-03-01T01:14:01;1.30;48.30
58849;DHT22;44619;51.022;6.818;2023-03-01T01:16:27;1.40;48.30
58849;DHT22;44619;51.022;6.818;2023-03-01T01:18:53;1.30;48.20
58849;DHT22;44619;51.022;6.818;2023-03-01T01:21:19;1.30;48.10
58849;DHT22;44619;51.022;6.818;2023-03-01T01:23:45;1.20;48.30
58849;DHT22;44619;51.022;6.818;2023-03-01T01:26:16;1.20;48.30
58849;DHT22;44619;51.022;6.818;2023-03-01T01:28:41;1.10;48.30
58849;DHT22;44619;51.022;6.818;2023-03-01T01:31:07;1.10;48.20
58849;DHT22;44619;51.022;6.818;2023-03-01T01:33:33;1.10;48.30
58849;DHT22;44619;51.022;6.818;2023-03-01T01:36:01;0.90;48.40
58849;DHT22;44619;51.022;6.818;2023-03-01T01:38:30;0.90;48.50
58849;DHT22;44619;51.022;6.818;2023-03-01T01:40:55;1.00;48.20
58849;DHT22;44619;51.022;6.818;2023-03-01T01:43:23;0.90;48.20
58849;DHT22;44619;51.022;6.818;2023-03-01T01:45:49;0.70;48.40
58849;DHT22;44619;51.022;6.818;2023-03-01T01:48:16;0.80;48.40
58849;DHT22;44619;51.022;6.818;2023-03-01T01:50:44;0.80;48.20
58849;DHT22;44619;51.022;6.818;2023-03-01T01:53:12;0.70;48.20
58849;DHT22;44619;51.022;6.818;2023-03-01T01:55:40;0.60;48.20
58849;DHT22;44619;51.022;6.818;2023-03-01T01:58:07;0.60;48.20
58849;DHT22;44619;51.022;6.818;2023-03-01T02:00:34;0.50;48.20
58849;DHT22;44619;51.022;6.818;2023-03-01T02:03:00;0.50;48.20
58849;DHT22;44619;51.022;6.818;2023-03-01T02:08:11;0.50;48.20
58849;DHT22;44619;51.022;6.818;2023-03-01T02:10:37;0.50;48.10
58849;DHT22;44619;51.022;6.818;2023-03-01T02:13:03;0.50;47.90
58849;DHT22;44619;51.022;6.818;2023-03-01T02:15:32;0.50;47.90
58849;DHT22;44619;51.022;6.818;2023-03-01T02:17:58;0.40;47.90
58849;DHT22;44619;51.022;6.818;2023-03-01T02:22:56;0.30;47.90
58849;DHT22;44619;51.022;6.818;2023-03-01T02:25:24;0.20;48.20
58849;DHT22;44619;51.022;6.818;2023-03-01T02:30:35;0.10;48.30
58849;DHT22;44619;51.022;6.818;2023-03-01T02:33:01;0.00;48.90
58849;DHT22;44619;51.022;6.818;2023-03-01T02:35:34;0.00;48.50
58849;DHT22;44619;51.022;6.818;2023-03-01T02:38:00;-0.10;49.10
58849;DHT22;44619;51.022;6.818;2023-03-01T02:40:28;0.00;48.50
58849;DHT22;44619;51.022;6.818;2023-03-01T02:42:54;-0.10;48.30
58849;DHT22;44619;51.022;6.818;2023-03-01T02:45:21;-0.10;48.50
58849;DHT22;44619;51.022;6.818;2023-03-01T02:47:46;0.00;48.30
58849;DHT22;44619;51.022;6.818;2023-03-01T02:50:15;-0.20;48.30
58849;DHT22;44619;51.022;6.818;2023-03-01T02:55:25;-0.10;48.20
58849;DHT22;44619;51.022;6.818;2023-03-01T02:57:50;-0.20;48.20
58849;DHT22;44619;51.022;6.818;2023-03-01T03:00:18;-0.20;48.20
58849;DHT22;44619;51.022;6.818;2023-03-01T03:02:48;-0.30;48.10
58849;DHT22;44619;51.022;6.818;2023-03-01T03:05:18;-0.30;48.50
58849;DHT22;44619;51.022;6.818;2023-03-01T03:07:45;-0.40;48.50
58849;DHT22;44619;51.022;6.818;2023-03-01T03:10:12;-0.50;48.40
58849;DHT22;44619;51.022;6.818;2023-03-01T03:12:38;-0.40;48.20
58849;DHT22;44619;51.022;6.818;2023-03-01T03:15:05;-0.50;48.30
58849;DHT22;44619;51.022;6.818;2023-03-01T03:17:35;-0.40;48.20
58849;DHT22;44619;51.022;6.818;2023-03-01T03:20:01;-0.40;48.10
58849;DHT22;44619;51.022;6.818;2023-03-01T03:22:28;-0.50;48.30
58849;DHT22;44619;51.022;6.818;2023-03-01T03:24:54;-0.60;48.30
58849;DHT22;44619;51.022;6.818;2023-03-01T03:27:19;-0.70;48.60
58849;DHT22;44619;51.022;6.818;2023-03-01T03:29:44;-0.70;48.60
58849;DHT22;44619;51.022;6.818;2023-03-01T03:32:10;-0.80;48.70
58849;DHT22;44619;51.022;6.818;2023-03-01T03:34:42;-0.80;48.70
58849;DHT22;44619;51.022;6.818;2023-03-01T03:37:07;-0.70;48.50
58849;DHT22;44619;51.022;6.818;2023-03-01T03:39:52;-0.70;48.40
58849;DHT22;44619;51.022;6.818;2023-03-01T03:42:20;-0.80;48.40
58849;DHT22;44619;51.022;6.818;2023-03-01T03:44:47;-0.80;48.70
58849;DHT22;44619;51.022;6.818;2023-03-01T03:47:18;-0.90;48.70
58849;DHT22;44619;51.022;6.818;2023-03-01T03:49:44;-0.90;48.70
58849;DHT22;44619;51.022;6.818;2023-03-01T03:52:09;-0.90;48.50
58849;DHT22;44619;51.022;6.818;2023-03-01T03:54:41;-0.90;48.40
58849;DHT22;44619;51.022;6.818;2023-03-01T03:57:07;-0.90;48.40
58849;DHT22;44619;51.022;6.818;2023-03-01T03:59:37;-0.90;48.50
58849;DHT22;44619;51.022;6.818;2023-03-01T04:02:02;-1.10;48.60
58849;DHT22;44619;51.022;6.818;2023-03-01T04:04:28;-1.10;48.70
58849;DHT22;44619;51.022;6.818;2023-03-01T04:06:53;-1.10;48.70
58849;DHT22;44619;51.022;6.818;2023-03-01T04:09:19;-1.10;48.50
58849;DHT22;44619;51.022;6.818;2023-03-01T04:11:45;-1.10;48.40
58849;DHT22;44619;51.022;6.818;2023-03-01T04:14:10;-1.20;48.50
58849;DHT22;44619;51.022;6.818;2023-03-01T04:16:36;-1.20;48.50
58849;DHT22;44619;51.022;6.818;2023-03-01T04:19:01;-1.20;48.60
58849;DHT22;44619;51.022;6.818;2023-03-01T04:21:27;-1.30;48.50
58849;DHT22;44619;51.022;6.818;2023-03-01T04:23:52;-1.30;48.70
58849;DHT22;44619;51.022;6.818;2023-03-01T04:26:18;-1.40;48.70
58849;DHT22;44619;51.022;6.818;2023-03-01T04:28:44;-1.40;48.80
58849;DHT22;44619;51.022;6.818;2023-03-01T04:31:12;-1.40;48.70
58849;DHT22;44619;51.022;6.818;2023-03-01T04:33:52;-1.30;48.50
58849;DHT22;44619;51.022;6.818;2023-03-01T04:36:19;-1.40;48.70
58849;DHT22;44619;51.022;6.818;2023-03-01T04:38:45;-1.50;48.70
58849;DHT22;44619;51.022;6.818;2023-03-01T04:41:15;-1.50;48.80
58849;DHT22;44619;51.022;6.818;2023-03-01T04:43:40;-1.50;48.60
58849;DHT22;44619;51.022;6.818;2023-03-01T04:46:07;-1.50;49.20
58849;DHT22;44619;51.022;6.818;2023-03-01T04:48:38;-1.50;48.70
58849;DHT22;44619;51.022;6.818;2023-03-01T04:51:04;-1.50;48.60
58849;DHT22;44619;51.022;6.818;2023-03-01T04:53:30;-1.60;48.70
58849;DHT22;44619;51.022;6.818;2023-03-01T04:55:55;-1.60;48.60
58849;DHT22;44619;51.022;6.818;2023-03-01T04:58:27;-1.70;48.70
58849;DHT22;44619;51.022;6.818;2023-03-01T05:00:54;-1.70;48.60
58849;DHT22;44619;51.022;6.818;2023-03-01T05:03:19;-1.80;48.80
58849;DHT22;44619;51.022;6.818;2023-03-01T05:05:46;-1.90;49.00
58849;DHT22;44619;51.022;6.818;2023-03-01T05:08:16;-1.80;49.10
58849;DHT22;44619;51.022;6.818;2023-03-01T05:10:49;-1.90;48.90
58849;DHT22;44619;51.022;6.818;2023-03-01T05:13:15;-1.90;49.00
58849;DHT22;44619;51.022;6.818;2023-03-01T05:15:46;-1.80;48.80
58849;DHT22;44619;51.022;6.818;2023-03-01T05:18:12;-1.80;48.70
58849;DHT22;44619;51.022;6.818;2023-03-01T05:20:38;-1.90;48.70
58849;DHT22;44619;51.022;6.818;2023-03-01T05:23:03;-2.00;49.00
58849;DHT22;44619;51.022;6.818;2023-03-01T05:25:31;-1.90;49.20
58849;DHT22;44619;51.022;6.818;2023-03-01T05:27:58;-2.00;49.00
58849;DHT22;44619;51.022;6.818;2023-03-01T05:30:24;-2.00;48.90
58849;DHT22;44619;51.022;6.818;2023-03-01T05:32:50;-2.00;48.90
58849;DHT22;44619;51.022;6.818;2023-03-01T05:35:20;-1.90;48.80
58849;DHT22;44619;51.022;6.818;2023-03-01T05:40:13;-2.10;48.60
58849;DHT22;44619;51.022;6.818;2023-03-01T05:42:43;-2.10;49.00
58849;DHT22;44619;51.022;6.818;2023-03-01T05:45:09;-2.20;48.90
58849;DHT22;44619;51.022;6.818;2023-03-01T05:47:38;-2.10;48.90
58849;DHT22;44619;51.022;6.818;2023-03-01T05:50:10;-2.10;48.70
58849;DHT22;44619;51.022;6.818;2023-03-01T05:52:36;-2.10;49.10
58849;DHT22;44619;51.022;6.818;2023-03-01T05:55:04;-2.20;49.10
58849;DHT22;44619;51.022;6.818;2023-03-01T05:57:30;-2.20;49.20
58849;DHT22;44619;51.022;6.818;2023-03-01T05:59:55;-2.30;49.20
58849;DHT22;44619;51.022;6.818;2023-03-01T06:02:21;-2.30;49.10
58849;DHT22;44619;51.022;6.818;2023-03-01T06:04:46;-2.30;49.10
58849;DHT22;44619;51.022;6.818;2023-03-01T06:07:12;-2.40;49.20
58849;DHT22;44619;51.022;6.818;2023-03-01T06:09:37;-2.40;49.20
58849;DHT22;44619;51.022;6.818;2023-03-01T06:12:03;-2.30;49.10
58849;DHT22;44619;51.022;6.818;2023-03-01T06:14:30;-2.40;48.90
58849;DHT22;44619;51.022;6.818;2023-03-01T06:16:55;-2.30;49.00
58849;DHT22;44619;51.022;6.818;2023-03-01T06:19:21;-2.30;48.90
58849;DHT22;44619;51.022;6.818;2023-03-01T06:21:46;-2.30;49.00
58849;DHT22;44619;51.022;6.818;2023-03-01T06:24:12;-2.30;48.90
58849;DHT22;44619;51.022;6.818;2023-03-01T06:26:37;-2.40;49.00
58849;DHT22;44619;51.022;6.818;2023-03-01T06:29:03;-2.40;49.10
58849;DHT22;44619;51.022;6.818;2023-03-01T06:31:28;-2.30;49.00
58849;DHT22;44619;51.022;6.818;2023-03-01T06:33:54;-2.30;48.80
58849;DHT22;44619;51.022;6.818;2023-03-01T06:36:19;-2.40;48.70
58849;DHT22;44619;51.022;6.818;2023-03-01T06:38:46;-2.40;48.80
58849;DHT22;44619;51.022;6.818;2023-03-01T06:41:12;-2.50;49.70
58849;DHT22;44619;51.022;6.818;2023-03-01T06:43:37;-2.50;49.00
58849;DHT22;44619;51.022;6.818;2023-03-01T06:46:03;-2.50;49.10
58849;DHT22;44619;51.022;6.818;2023-03-01T06:48:29;-2.50;49.10
58849;DHT22;44619;51.022;6.818;2023-03-01T06:50:57;-2.50;48.90
58849;DHT22;44619;51.022;6.818;2023-03-01T06:53:27;-2.50;49.00
58849;DHT22;44619;51.022;6.818;2023-03-01T06:55:54;-2.50;48.90
58849;DHT22;44619;51.022;6.818;2023-03-01T06:58:20;-2.50;49.10
58849;DHT22;44619;51.022;6.818;2023-03-01T07:00:49;-2.50;49.00
58849;DHT22;44619;51.022;6.818;2023-03-01T07:03:14;-2.50;49.20
58849;DHT22;44619;51.022;6.818;2023-03-01T07:05:40;-2.50;49.30
58849;DHT22;44619;51.022;6.818;2023-03-01T07:08:05;-2.60;49.40
58849;DHT22;44619;51.022;6.818;2023-03-01T07:10:31;-2.40;49.30
58849;DHT22;44619;51.022;6.818;2023-03-01T07:12:57;-2.30;49.10
58849;DHT22;44619;51.022;6.818;2023-03-01T07:15:31;-2.40;49.10
58849;DHT22;44619;51.022;6.818;2023-03-01T07:17:58;-2.50;49.40
58849;DHT22;44619;51.022;6.818;2023-03-01T07:20:23;-2.50;49.50
58849;DHT22;44619;51.022;6.818;2023-03-01T07:22:51;-2.40;49.40
58849;DHT22;44619;51.022;6.818;2023-03-01T07:25:17;-2.40;49.40
58849;DHT22;44619;51.022;6.818;2023-03-01T07:27:43;-2.30;49.50
58849;DHT22;44619;51.022;6.818;2023-03-01T07:30:10;-2.20;49.30
58849;DHT22;44619;51.022;6.818;2023-03-01T07:32:35;-2.30;49.30
58849;DHT22;44619;51.022;6.818;2023-03-01T07:35:01;-2.40;49.80
58849;DHT22;44619;51.022;6.818;2023-03-01T07:37:27;-2.30;49.80
58849;DHT22;44619;51.022;6.818;2023-03-01T07:39:52;-2.10;49.50
58849;DHT22;44619;51.022;6.818;2023-03-01T07:42:18;-2.00;49.40
58849;DHT22;44619;51.022;6.818;2023-03-01T14:16:17;18.10;31.90
58849;DHT22;44619;51.022;6.818;2023-03-01T14:21:14;18.90;36.30
58849;DHT22;44619;51.022;6.818;2023-03-01T14:23:39;19.20;37.30
58849;DHT22;44619;51.022;6.818;2023-03-01T14:26:07;19.50;37.60
58849;DHT22;44619;51.022;6.818;2023-03-01T14:28:33;19.70;37.90
58849;DHT22;44619;51.022;6.818;2023-03-01T14:31:02;20.00;38.30
58849;DHT22;44619;51.022;6.818;2023-03-01T14:38:20;20.40;38.50
58849;DHT22;44619;51.022;6.818;2023-03-01T14:40:46;20.50;38.50
58849;DHT22;44619;51.022;6.818;2023-03-01T14:43:18;20.60;38.80
58849;DHT22;44619;51.022;6.818;2023-03-01T14:45:48;20.60;38.80
58849;DHT22;44619;51.022;6.818;2023-03-01T14:48:18;20.60;38.90
58849;DHT22;44619;51.022;6.818;2023-03-01T14:50:44;20.70;38.70
58849;DHT22;44619;51.022;6.818;2023-03-01T14:53:26;20.70;38.50
58849;DHT22;44619;51.022;6.818;2023-03-01T14:55:54;20.80;38.50
58849;DHT22;44619;51.022;6.818;2023-03-01T14:58:21;20.80;38.70
58849;DHT22;44619;51.022;6.818;2023-03-01T15:00:54;20.80;38.30
58849;DHT22;44619;51.022;6.818;2023-03-01T15:03:24;20.80;38.10
58849;DHT22;44619;51.022;6.818;2023-03-01T15:05:53;20.80;38.20
58849;DHT22;44619;51.022;6.818;2023-03-01T15:08:25;20.90;38.50
58849;DHT22;44619;51.022;6.818;2023-03-01T15:11:01;20.90;38.60
58849;DHT22;44619;51.022;6.818;2023-03-01T15:13:30;20.90;38.60
58849;DHT22;44619;51.022;6.818;2023-03-01T15:16:02;20.90;38.20
58849;DHT22;44619;51.022;6.818;2023-03-01T15:18:29;20.90;37.70
58849;DHT22;44619;51.022;6.818;2023-03-01T15:20:55;20.90;38.10
58849;DHT22;44619;51.022;6.818;2023-03-01T15:23:29;20.90;38.20
58849;DHT22;44619;51.022;6.818;2023-03-01T15:25:55;21.00;37.80
58849;DHT22;44619;51.022;6.818;2023-03-01T15:28:34;21.00;37.40
58849;DHT22;44619;51.022;6.818;2023-03-01T15:31:07;21.00;37.20
58849;DHT22;44619;51.022;6.818;2023-03-01T15:33:37;20.90;36.90
58849;DHT22;44619;51.022;6.818;2023-03-01T15:41:27;20.90;37.70
58849;DHT22;44619;51.022;6.818;2023-03-01T15:43:53;20.90;37.50
58849;DHT22;44619;51.022;6.818;2023-03-01T15:46:26;20.80;37.60
58849;DHT22;44619;51.022;6.818;2023-03-01T15:48:53;20.80;37.80
58849;DHT22;44619;51.022;6.818;2023-03-01T15:51:42;20.70;37.20
58849;DHT22;44619;51.022;6.818;2023-03-01T15:54:12;20.70;37.80
58849;DHT22;44619;51.022;6.818;2023-03-01T15:56:40;20.60;37.60
58849;DHT22;44619;51.022;6.818;2023-03-01T15:59:05;20.60;37.60
58849;DHT22;44619;51.022;6.818;2023-03-01T16:01:32;20.40;37.50
58849;DHT22;44619;51.022;6.818;2023-03-01T16:03:59;20.40;37.20
58849;DHT22;44619;51.022;6.818;2023-03-01T16:06:25;20.30;36.90
58849;DHT22;44619;51.022;6.818;2023-03-01T16:08:50;20.10;36.50
58849;DHT22;44619;51.022;6.818;2023-03-01T16:11:17;20.00;36.70
58849;DHT22;44619;51.022;6.818;2023-03-01T16:13:43;19.90;36.20
58849;DHT22;44619;51.022;6.818;2023-03-01T16:16:12;19.70;36.10
58849;DHT22;44619;51.022;6.818;2023-03-01T16:18:44;19.50;36.20
58849;DHT22;44619;51.022;6.818;2023-03-01T16:21:13;19.40;35.90
58849;DHT22;44619;51.022;6.818;2023-03-01T16:23:42;19.20;36.00
58849;DHT22;44619;51.022;6.818;2023-03-01T16:26:09;19.00;35.90
58849;DHT22;44619;51.022;6.818;2023-03-01T16:28:34;18.80;36.10
58849;DHT22;44619;51.022;6.818;2023-03-01T16:31:00;18.60;35.80
58849;DHT22;44619;51.022;6.818;2023-03-01T16:33:26;18.40;35.60
58849;DHT22;44619;51.022;6.818;2023-03-01T16:35:52;18.20;35.50
58849;DHT22;44619;51.022;6.818;2023-03-01T16:38:18;18.00;35.30
58849;DHT22;44619;51.022;6.818;2023-03-01T16:40:46;17.90;35.70
58849;DHT22;44619;51.022;6.818;2023-03-01T16:43:12;17.70;35.50
58849;DHT22;44619;51.022;6.818;2023-03-01T16:45:37;17.50;35.40
58849;DHT22;44619;51.022;6.818;2023-03-01T16:48:05;17.40;35.50
58849;DHT22;44619;51.022;6.818;2023-03-01T16:50:31;17.30;35.80
58849;DHT22;44619;51.022;6.818;2023-03-01T16:52:57;17.20;36.10
58849;DHT22;44619;51.022;6.818;2023-03-01T16:55:22;17.00;36.50
58849;DHT22;44619;51.022;6.818;2023-03-01T16:57:48;16.70;36.50
58849;DHT22;44619;51.022;6.818;2023-03-01T17:00:14;16.60;36.80
58849;DHT22;44619;51.022;6.818;2023-03-01T17:02:40;16.40;36.80
58849;DHT22;44619;51.022;6.818;2023-03-01T17:05:08;16.30;36.60
58849;DHT22;44619;51.022;6.818;2023-03-01T17:07:35;16.10;36.60
58849;DHT22;44619;51.022;6.818;2023-03-01T17:10:02;15.90;36.70
58849;DHT22;44619;51.022;6.818;2023-03-01T17:12:27;15.70;36.50
58849;DHT22;44619;51.022;6.818;2023-03-01T17:14:53;15.60;36.60
58849;DHT22;44619;51.022;6.818;2023-03-01T17:17:19;15.40;36.70
58849;DHT22;44619;51.022;6.818;2023-03-01T17:19:48;15.20;36.70
58849;DHT22;44619;51.022;6.818;2023-03-01T17:22:15;15.00;36.70
58849;DHT22;44619;51.022;6.818;2023-03-01T17:24:42;14.80;36.70
58849;DHT22;44619;51.022;6.818;2023-03-01T17:27:08;14.60;37.00
58849;DHT22;44619;51.022;6.818;2023-03-01T17:29:34;14.50;37.20
58849;DHT22;44619;51.022;6.818;2023-03-01T17:31:59;14.20;37.40
58849;DHT22;44619;51.022;6.818;2023-03-01T17:34:25;14.10;37.50
58849;DHT22;44619;51.022;6.818;2023-03-01T17:36:51;13.80;37.60
58849;DHT22;44619;51.022;6.818;2023-03-01T17:39:23;13.70;37.70
58849;DHT22;44619;51.022;6.818;2023-03-01T17:42:02;13.60;37.70
58849;DHT22;44619;51.022;6.818;2023-03-01T17:44:29;13.50;37.90
58849;DHT22;44619;51.022;6.818;2023-03-01T17:46:58;13.20;38.00
58849;DHT22;44619;51.022;6.818;2023-03-01T17:49:23;13.20;38.10
58849;DHT22;44619;51.022;6.818;2023-03-01T17:51:49;13.10;38.00
58849;DHT22;44619;51.022;6.818;2023-03-01T17:54:15;12.90;38.10
58849;DHT22;44619;51.022;6.818;2023-03-01T17:56:40;12.80;38.20
58849;DHT22;44619;51.022;6.818;2023-03-01T17:59:07;12.40;38.50
58849;DHT22;44619;51.022;6.818;2023-03-01T18:01:33;12.20;38.80
58849;DHT22;44619;51.022;6.818;2023-03-01T18:04:00;12.00;38.90
58849;DHT22;44619;51.022;6.818;2023-03-01T18:06:26;12.00;38.90
58849;DHT22;44619;51.022;6.818;2023-03-01T18:08:52;11.80;39.00
58849;DHT22;44619;51.022;6.818;2023-03-01T18:11:23;11.70;39.30
58849;DHT22;44619;51.022;6.818;2023-03-01T18:13:49;11.60;39.30
58849;DHT22;44619;51.022;6.818;2023-03-01T18:16:16;11.50;39.20
58849;DHT22;44619;51.022;6.818;2023-03-01T18:18:42;11.30;39.40
58849;DHT22;44619;51.022;6.818;2023-03-01T18:21:09;11.20;39.40
58849;DHT22;44619;51.022;6.818;2023-03-01T18:23:35;11.20;39.50
58849;DHT22;44619;51.022;6.818;2023-03-01T18:26:02;11.00;39.40
58849;DHT22;44619;51.022;6.818;2023-03-01T18:28:29;10.90;39.50
58849;DHT22;44619;51.022;6.818;2023-03-01T18:30:56;10.80;39.70
58849;DHT22;44619;51.022;6.818;2023-03-01T18:33:21;10.80;39.50
58849;DHT22;44619;51.022;6.818;2023-03-01T18:35:47;10.80;39.50
58849;DHT22;44619;51.022;6.818;2023-03-01T18:38:20;10.60;39.40
58849;DHT22;44619;51.022;6.818;2023-03-01T18:40:46;10.60;39.60
58849;DHT22;44619;51.022;6.818;2023-03-01T18:43:13;10.40;39.80
58849;DHT22;44619;51.022;6.818;2023-03-01T18:45:38;10.30;39.80
58849;DHT22;44619;51.022;6.818;2023-03-01T18:48:04;10.30;39.60
58849;DHT22;44619;51.022;6.818;2023-03-01T18:50:29;10.20;39.80
58849;DHT22;44619;51.022;6.818;2023-03-01T18:52:56;10.00;39.80
58849;DHT22;44619;51.022;6.818;2023-03-01T18:55:22;10.10;39.70
58849;DHT22;44619;51.022;6.818;2023-03-01T18:57:47;10.00;39.80
58849;DHT22;44619;51.022;6.818;2023-03-01T19:00:13;9.90;39.70
58849;DHT22;44619;51.022;6.818;2023-03-01T19:02:38;9.90;39.80
58849;DHT22;44619;51.022;6.818;2023-03-01T19:05:04;9.80;39.80
58849;DHT22;44619;51.022;6.818;2023-03-01T19:07:30;9.70;39.70
58849;DHT22;44619;51.022;6.818;2023-03-01T19:09:56;9.60;40.00
58849;DHT22;44619;51.022;6.818;2023-03-01T19:12:22;9.50;39.90
58849;DHT22;44619;51.022;6.818;2023-03-01T19:14:47;9.40;40.00
58849;DHT22;44619;51.022;6.818;2023-03-01T19:17:13;9.40;40.10
58849;DHT22;44619;51.022;6.818;2023-03-01T19:19:40;9.30;40.10
58849;DHT22;44619;51.022;6.818;2023-03-01T19:22:05;9.20;40.00
58849;DHT22;44619;51.022;6.818;2023-03-01T19:24:32;9.20;40.00
58849;DHT22;44619;51.022;6.818;2023-03-01T19:26:58;9.20;40.00
58849;DHT22;44619;51.022;6.818;2023-03-01T19:29:24;9.00;39.90
58849;DHT22;44619;51.022;6.818;2023-03-01T19:31:49;8.90;40.10
58849;DHT22;44619;51.022;6.818;2023-03-01T19:34:15;8.90;40.20
58849;DHT22;44619;51.022;6.818;2023-03-01T19:36:49;8.80;40.30
58849;DHT22;44619;51.022;6.818;2023-03-01T19:39:15;8.70;40.20
58849;DHT22;44619;51.022;6.818;2023-03-01T19:41:41;8.70;40.20
58849;DHT22;44619;51.022;6.818;2023-03-01T19:44:06;8.50;40.40
58849;DHT22;44619;51.022;6.818;2023-03-01T19:46:33;8.40;40.30
58849;DHT22;44619;51.022;6.818;2023-03-01T19:48:58;8.30;40.40
58849;DHT22;44619;51.022;6.818;2023-03-01T19:51:28;8.30;40.50
58849;DHT22;44619;51.022;6.818;2023-03-01T19:53:54;8.20;40.50
58849;DHT22;44619;51.022;6.818;2023-03-01T19:56:20;8.10;40.50
58849;DHT22;44619;51.022;6.818;2023-03-01T19:58:45;8.00;40.60
58849;DHT22;44619;51.022;6.818;2023-03-01T20:01:16;8.00;40.60
58849;DHT22;44619;51.022;6.818;2023-03-01T20:03:46;7.80;40.70
58849;DHT22;44619;51.022;6.818;2023-03-01T20:06:16;7.70;41.00
58849;DHT22;44619;51.022;6.818;2023-03-01T20:08:42;7.60;40.90
58849;DHT22;44619;51.022;6.818;2023-03-01T20:11:09;7.60;40.80
58849;DHT22;44619;51.022;6.818;2023-03-01T20:13:35;7.60;40.80
58849;DHT22;44619;51.022;6.818;2023-03-01T20:16:04;7.40;40.80
58849;DHT22;44619;51.022;6.818;2023-03-01T20:18:30;7.30;41.00
58849;DHT22;44619;51.022;6.818;2023-03-01T20:20:56;7.20;41.10
58849;DHT22;44619;51.022;6.818;2023-03-01T20:23:22;7.30;41.00
58849;DHT22;44619;51.022;6.818;2023-03-01T20:25:48;7.10;40.90
58849;DHT22;44619;51.022;6.818;2023-03-01T20:28:14;7.00;41.10
58849;DHT22;44619;51.022;6.818;2023-03-01T20:30:40;7.00;41.10
58849;DHT22;44619;51.022;6.818;2023-03-01T20:33:08;6.90;41.10
58849;DHT22;44619;51.022;6.818;2023-03-01T20:35:40;6.80;41.40
58849;DHT22;44619;51.022;6.818;2023-03-01T20:38:09;6.80;41.10
58849;DHT22;44619;51.022;6.818;2023-03-01T20:40:35;6.80;41.20
58849;DHT22;44619;51.022;6.818;2023-03-01T20:43:00;6.70;41.10
58849;DHT22;44619;51.022;6.818;2023-03-01T20:45:26;6.60;41.40
58849;DHT22;44619;51.022;6.818;2023-03-01T20:47:52;6.50;41.40
58849;DHT22;44619;51.022;6.818;2023-03-01T20:50:18;6.40;45.90
58849;DHT22;44619;51.022;6.818;2023-03-01T20:52:43;6.40;49.70
58849;DHT22;44619;51.022;6.818;2023-03-01T20:55:09;6.40;44.70
58849;DHT22;44619;51.022;6.818;2023-03-01T20:57:35;6.30;43.30
58849;DHT22;44619;51.022;6.818;2023-03-01T21:00:01;6.30;43.20
58849;DHT22;44619;51.022;6.818;2023-03-01T21:02:26;6.20;42.00
58849;DHT22;44619;51.022;6.818;2023-03-01T21:04:52;6.20;43.10
58849;DHT22;44619;51.022;6.818;2023-03-01T21:07:17;6.20;43.80
58849;DHT22;44619;51.022;6.818;2023-03-01T21:09:43;6.20;43.90
58849;DHT22;44619;51.022;6.818;2023-03-01T21:12:11;6.10;47.10
58849;DHT22;44619;51.022;6.818;2023-03-01T21:14:37;6.00;49.90
58849;DHT22;44619;51.022;6.818;2023-03-01T21:17:15;5.80;41.50
58849;DHT22;44619;51.022;6.818;2023-03-01T21:19:42;5.70;41.70
58849;DHT22;44619;51.022;6.818;2023-03-01T21:22:16;5.60;41.70
58849;DHT22;44619;51.022;6.818;2023-03-01T21:24:43;5.50;41.90
58849;DHT22;44619;51.022;6.818;2023-03-01T21:27:09;5.40;42.00
58849;DHT22;44619;51.022;6.818;2023-03-01T21:29:42;5.40;41.90
58849;DHT22;44619;51.022;6.818;2023-03-01T21:32:08;5.40;42.10
58849;DHT22;44619;51.022;6.818;2023-03-01T21:34:34;5.40;41.70
58849;DHT22;44619;51.022;6.818;2023-03-01T21:37:00;5.30;41.90
58849;DHT22;44619;51.022;6.818;2023-03-01T21:39:26;5.20;42.00
58849;DHT22;44619;51.022;6.818;2023-03-01T21:41:53;5.20;41.90
58849;DHT22;44619;51.022;6.818;2023-03-01T21:44:19;5.20;41.70
58849;DHT22;44619;51.022;6.818;2023-03-01T21:46:44;5.20;41.80
58849;DHT22;44619;51.022;6.818;2023-03-01T21:49:10;5.10;41.70
58849;DHT22;44619;51.022;6.818;2023-03-01T21:51:36;5.00;42.00
58849;DHT22;44619;51.022;6.818;2023-03-01T21:54:02;5.00;42.00
58849;DHT22;44619;51.022;6.818;2023-03-01T21:56:29;5.00;41.90
58849;DHT22;44619;51.022;6.818;2023-03-01T21:58:56;4.90;41.90
58849;DHT22;44619;51.022;6.818;2023-03-01T22:01:23;4.90;41.90
58849;DHT22;44619;51.022;6.818;2023-03-01T22:03:51;4.80;41.90
58849;DHT22;44619;51.022;6.818;2023-03-01T22:06:21;4.80;42.10
58849;DHT22;44619;51.022;6.818;2023-03-01T22:08:54;4.70;42.10
58849;DHT22;44619;51.022;6.818;2023-03-01T22:11:20;4.70;42.20
58849;DHT22;44619;51.022;6.818;2023-03-01T22:13:46;4.60;42.30
58849;DHT22;44619;51.022;6.818;2023-03-01T22:16:14;4.40;42.50
58849;DHT22;44619;51.022;6.818;2023-03-01T22:18:39;4.40;42.50
58849;DHT22;44619;51.022;6.818;2023-03-01T22:21:05;4.40;42.40
58849;DHT22;44619;51.022;6.818;2023-03-01T22:23:31;4.30;42.30
58849;DHT22;44619;51.022;6.818;2023-03-01T22:25:58;4.30;42.30
58849;DHT22;44619;51.022;6.818;2023-03-01T22:28:24;4.30;42.50
58849;DHT22;44619;51.022;6.818;2023-03-01T22:30:49;4.30;42.40
58849;DHT22;44619;51.022;6.818;2023-03-01T22:33:15;4.20;42.50